Tropical Cyclones
[Index]
Main Index Home Page Stock Weather Photos Extreme Storms Discussion Storm News and Storm Chasing Reports Tropical Cyclones / Hurricanes / Typhoons Weather Data and Links Wild Fires / Bushfires Weather Observation Techniques Weather Picture Catalogue Tornado Pictures and Reports Stock Video Footage and DVDs for sale
Season 1971-1972 Tropical Cyclone BRONWYN Track Map
Season 1971-1972 Summaries: [BoM-AU] [JTWC-AU] [JTWC-SIO] [JTWC-SPAC] [JTWC-SH]
<<- Previous TC | JTWC 1971-1972 Season | Next TC ->>

click for intensity scale information  Lat/long Grid: Show Hide

 Date Labels: Show Hide

Joint Typhoon Warning Centre Cyclone Data

Name: BRONWYN
Number: 782 / 7211

03 Jan 1972 00:00 UTC to 11 Jan 1972 18:00 UTC

    date/time    lat    long     hPa   cat  kts
1972-01-03 00   16.1   138.7                  10          
1972-01-03 06   15.8   138.7                  05          
1972-01-03 12   15.3   138.8                  05          
1972-01-03 18   14.8   138.9                  10          
1972-01-04 00   14.1   139.0                  10          
1972-01-04 06   13.3   139.2                  10          
1972-01-04 12   12.5   139.3                  10          
1972-01-04 18   11.6   139.7                  20          
1972-01-05 00   11.3   140.0                  25          
1972-01-05 06   11.4   140.2                  35          
1972-01-05 12   11.4   140.4                  35          
1972-01-05 18   11.5   140.6                  30          
1972-01-06 00   11.5   140.8                  30          
1972-01-06 06   11.6   141.3                  25          
1972-01-06 12   11.7   141.6                  25          
1972-01-06 18   11.7   141.8                  25          
1972-01-07 00   11.9   141.9                  25          
1972-01-07 06   12.7   141.8                  15          
1972-01-07 12   13.9   141.8                  10          
1972-01-07 18   15.2   141.9                  20          
1972-01-08 00   16.1   142.1                  30          
1972-01-08 06   16.7   142.5                  30          
1972-01-08 12   17.3   142.8                  30          
1972-01-08 18   17.9   143.0                  30          
1972-01-09 00   18.4   143.0                  30          
1972-01-09 06   18.8   142.9                  25          
1972-01-09 12   19.3   142.5                  25          
1972-01-09 18   19.7   142.0                  25          
1972-01-10 00   20.2   141.4                  25          
1972-01-10 06   20.6   140.9                  20          
1972-01-10 12   21.1   140.7                  15          
1972-01-10 18   21.7   140.7                  20          
1972-01-11 00   22.3   140.9                              
1972-01-11 06   22.9   141.1                              
1972-01-11 12   23.5   141.5                              
1972-01-11 18   24.3   142.0                              
Winds are 1-min average.

Tropical cyclone tracks developed by Michael Bath using data from the Joint Typhoon Warning Centre Best Tracks and Google Maps.


[Australian Severe Weather index] [Copyright Notice] [Email Contacts] [Search This Site] [Privacy Policy]
Document: tropical_cyclone_bronwyn.htm Updated: 18 September 2016